createdAt,value
2022-08-26T00:05:01.471Z,9.77
2022-08-26T00:10:06.687Z,9.77
2022-08-26T00:15:10.633Z,9.88
2022-08-26T00:20:15.274Z,9.68
2022-08-26T00:25:20.512Z,9.10
2022-08-26T00:30:27.493Z,9.50
2022-08-26T00:35:31.225Z,7.80
2022-08-26T00:40:40.024Z,9.98
2022-08-26T00:45:45.354Z,9.45
2022-08-26T00:50:50.303Z,9.50
2022-08-26T00:55:56.342Z,8.73
2022-08-26T01:00:59.562Z,10.15
2022-08-26T01:06:03.995Z,9.40
2022-08-26T01:11:09.351Z,9.85
2022-08-26T01:16:17.486Z,10.13
2022-08-26T01:26:29.011Z,9.98
2022-08-26T01:31:34.679Z,10.75
2022-08-26T01:36:37.752Z,10.73
2022-08-26T01:41:43.982Z,9.93
2022-08-26T01:46:48.687Z,11.15
2022-08-26T01:51:55.288Z,9.27
2022-08-26T01:57:00.032Z,11.38
2022-08-26T02:02:03.020Z,11.02
2022-08-26T02:07:06.739Z,10.80
2022-08-26T02:12:13.155Z,10.82
2022-08-26T02:17:19.028Z,10.88
2022-08-26T02:22:24.881Z,10.32
2022-08-26T02:27:32.425Z,11.25
2022-08-26T02:32:35.288Z,11.15
2022-08-26T02:37:38.636Z,10.30
2022-08-26T02:42:46.315Z,10.80
2022-08-26T02:47:49.288Z,11.60
2022-08-26T02:52:53.651Z,11.10
2022-08-26T02:57:57.733Z,10.32
2022-08-26T03:03:01.045Z,10.52
2022-08-26T03:13:10.631Z,9.45
2022-08-26T03:18:13.680Z,11.25
2022-08-26T03:23:16.327Z,11.00
2022-08-26T03:28:22.611Z,11.88
2022-08-26T03:33:25.479Z,10.77
2022-08-26T03:38:28.669Z,11.70
2022-08-26T03:43:32.801Z,10.15
2022-08-26T03:48:36.224Z,10.50
2022-08-26T03:53:39.089Z,10.68
2022-08-26T03:58:44.413Z,11.30
2022-08-26T04:04:00.259Z,11.40
2022-08-26T04:09:05.887Z,11.18
2022-08-26T04:14:11.148Z,12.25
2022-08-26T04:19:15.461Z,12.32
2022-08-26T04:24:18.936Z,11.95
2022-08-26T04:34:28.454Z,10.20
2022-08-26T04:39:32.014Z,9.75
2022-08-26T04:44:35.657Z,10.48
2022-08-26T04:49:39.863Z,9.88
2022-08-26T04:54:44.321Z,10.48
2022-08-26T04:59:47.305Z,9.18
2022-08-26T05:04:54.105Z,9.98
2022-08-26T05:09:57.716Z,10.13
2022-08-26T05:15:00.906Z,11.07
2022-08-26T05:20:06.169Z,11.75
2022-08-26T05:25:10.039Z,12.20
2022-08-26T05:30:16.808Z,9.05
2022-08-26T05:35:21.161Z,10.95
2022-08-26T05:40:25.665Z,10.85
2022-08-26T05:45:29.267Z,11.70
2022-08-26T05:50:41.984Z,10.35
2022-08-26T05:55:47.648Z,11.95
2022-08-26T06:00:57.958Z,10.93
2022-08-26T06:06:03.671Z,10.32
2022-08-26T06:11:10.687Z,11.15
2022-08-26T06:16:23.027Z,11.50
2022-08-26T06:21:30.156Z,10.38
2022-08-26T06:26:34.218Z,12.02
2022-08-26T06:31:40.097Z,11.18
2022-08-26T06:36:45.000Z,9.48
2022-08-26T06:41:57.652Z,9.70
2022-08-26T06:47:04.009Z,10.18
2022-08-26T06:52:08.925Z,9.57
2022-08-26T06:57:11.748Z,9.85
2022-08-26T07:07:22.007Z,8.80
2022-08-26T07:12:25.946Z,8.80
2022-08-26T07:17:29.240Z,8.02
2022-08-26T07:22:34.275Z,8.63
2022-08-26T07:27:38.077Z,8.05
2022-08-26T07:32:41.882Z,8.07
2022-08-26T07:37:46.110Z,7.95
2022-08-26T07:42:49.249Z,8.35
2022-08-26T07:47:52.114Z,8.02
2022-08-26T07:52:56.718Z,7.55
2022-08-26T07:57:59.754Z,8.10
2022-08-26T08:03:05.715Z,7.85
2022-08-26T08:08:26.213Z,8.43
2022-08-26T08:13:31.392Z,8.60
2022-08-26T08:18:34.600Z,9.00
2022-08-26T08:23:39.673Z,9.00
2022-08-26T08:28:43.633Z,8.95
2022-08-26T08:33:47.251Z,8.70
2022-08-26T08:38:52.646Z,8.50
2022-08-26T08:43:55.993Z,9.13
2022-08-26T08:49:01.158Z,8.65
2022-08-26T08:54:05.896Z,8.18
2022-08-26T08:59:15.689Z,8.57
2022-08-26T09:04:30.984Z,8.20
2022-08-26T09:09:37.017Z,8.27
2022-08-26T09:14:39.966Z,8.18
2022-08-26T09:19:44.545Z,7.85
2022-08-26T09:24:49.741Z,7.95
2022-08-26T09:29:54.877Z,8.45
2022-08-26T09:34:58.632Z,8.55
2022-08-26T09:40:15.378Z,8.23
2022-08-26T09:45:28.173Z,8.45
2022-08-26T09:50:31.842Z,7.63
2022-08-26T09:55:37.133Z,8.52
2022-08-26T10:00:41.753Z,7.40
2022-08-26T10:05:47.705Z,7.43
2022-08-26T10:10:53.809Z,8.07
2022-08-26T10:16:02.725Z,8.60
2022-08-26T10:21:11.168Z,7.88
2022-08-26T10:26:20.264Z,7.90
2022-08-26T10:31:29.000Z,7.85
2022-08-26T10:42:18.376Z,8.05
2022-08-26T10:47:24.844Z,7.38
2022-08-26T10:52:35.360Z,7.32
2022-08-26T10:57:44.685Z,7.55
2022-08-26T11:02:50.256Z,7.72
2022-08-26T11:07:57.064Z,7.70
2022-08-26T11:13:03.603Z,7.20
2022-08-26T11:18:09.198Z,6.85
2022-08-26T11:23:30.907Z,6.47
2022-08-26T11:28:44.237Z,6.57
2022-08-26T11:33:48.427Z,6.15
2022-08-26T11:38:55.275Z,6.80
2022-08-26T11:44:02.012Z,5.18
2022-08-26T11:49:06.812Z,5.10
2022-08-26T11:54:10.714Z,5.25
2022-08-26T11:59:18.868Z,6.88
2022-08-26T12:04:26.368Z,5.50
2022-08-26T12:09:31.606Z,5.80
2022-08-26T12:14:36.084Z,5.40
2022-08-26T12:19:42.533Z,5.90
2022-08-26T12:24:48.537Z,5.53
2022-08-26T12:30:08.557Z,10.25
2022-08-26T12:35:13.253Z,6.18
2022-08-26T12:40:26.834Z,6.40
2022-08-26T12:45:32.691Z,5.85
2022-08-26T12:50:37.043Z,5.50
2022-08-26T12:55:42.463Z,5.20
2022-08-26T13:00:48.706Z,5.50
2022-08-26T13:05:52.279Z,5.18
2022-08-26T13:11:04.806Z,5.47
2022-08-26T13:16:09.222Z,5.35
2022-08-26T13:21:17.337Z,5.40
2022-08-26T13:26:20.957Z,5.22
2022-08-26T13:31:26.946Z,4.95
2022-08-26T13:36:29.969Z,4.95
2022-08-26T13:41:33.907Z,4.88
2022-08-26T13:46:38.172Z,5.20
2022-08-26T13:51:41.754Z,5.22
2022-08-26T13:56:45.231Z,4.60
2022-08-26T14:01:49.261Z,4.75
2022-08-26T14:06:52.219Z,5.28
2022-08-26T14:11:55.378Z,5.20
2022-08-26T14:17:00.553Z,5.45
2022-08-26T14:22:03.574Z,5.95
2022-08-26T14:27:06.348Z,5.28
2022-08-26T14:32:12.921Z,5.68
2022-08-26T14:37:16.118Z,4.75
2022-08-26T14:42:23.272Z,4.10
2022-08-26T14:47:27.323Z,4.28
2022-08-26T14:52:50.140Z,4.78
2022-08-26T14:57:52.869Z,4.90
2022-08-26T15:02:57.059Z,4.38
2022-08-26T15:08:00.776Z,4.50
2022-08-26T15:13:03.831Z,4.47
2022-08-26T15:18:07.996Z,5.28
2022-08-26T15:23:12.001Z,5.07
2022-08-26T15:28:14.932Z,5.78
2022-08-26T15:33:19.586Z,4.78
2022-08-26T15:38:22.988Z,4.80
2022-08-26T15:43:29.003Z,5.47
2022-08-26T15:48:33.812Z,6.20
2022-08-26T15:53:36.867Z,5.70
2022-08-26T15:58:40.128Z,6.10
2022-08-26T16:03:47.910Z,5.95
2022-08-26T16:08:51.889Z,6.05
2022-08-26T16:13:54.688Z,5.40
2022-08-26T16:18:58.944Z,6.03
2022-08-26T16:24:01.651Z,5.68
2022-08-26T16:29:06.474Z,6.15
2022-08-26T16:34:10.934Z,5.63
2022-08-26T16:39:13.951Z,6.20
2022-08-26T16:44:16.814Z,5.82
2022-08-26T16:49:21.147Z,6.50
2022-08-26T16:54:24.152Z,6.40
2022-08-26T16:59:26.976Z,6.32
2022-08-26T17:04:32.455Z,6.65
2022-08-26T17:09:35.520Z,5.85
2022-08-26T17:14:39.346Z,6.15
2022-08-26T17:19:46.993Z,6.13
2022-08-26T17:24:50.245Z,6.15
2022-08-26T17:29:53.308Z,5.93
2022-08-26T17:34:58.081Z,6.18
2022-08-26T17:40:01.074Z,6.45
2022-08-26T17:45:03.822Z,6.63
2022-08-26T17:50:10.621Z,6.57
2022-08-26T17:55:15.022Z,7.65
2022-08-26T18:00:20.743Z,6.70
2022-08-26T18:05:25.097Z,6.28
2022-08-26T18:10:27.999Z,7.03
2022-08-26T18:15:31.508Z,6.60
2022-08-26T18:20:35.788Z,6.53
2022-08-26T18:25:40.404Z,6.72
2022-08-26T18:30:44.259Z,6.68
2022-08-26T18:35:48.620Z,6.45
2022-08-26T18:40:52.760Z,6.25
2022-08-26T18:46:02.395Z,6.93
2022-08-26T18:51:07.145Z,7.38
2022-08-26T18:56:15.373Z,5.65
2022-08-26T19:01:27.781Z,5.38
2022-08-26T19:06:33.081Z,3.97
2022-08-26T19:11:37.604Z,3.60
2022-08-26T19:16:49.072Z,2.65
2022-08-26T19:21:53.618Z,2.80
2022-08-26T19:26:58.354Z,2.50
2022-08-26T19:32:02.604Z,2.80
2022-08-26T19:37:07.393Z,1.88
2022-08-26T19:42:10.493Z,1.98
2022-08-26T19:47:13.517Z,1.95
2022-08-26T19:52:18.233Z,1.85
2022-08-26T19:57:21.258Z,3.58
2022-08-26T20:02:24.278Z,6.45
2022-08-26T20:07:28.632Z,6.90
2022-08-26T20:12:33.845Z,5.68
2022-08-26T20:17:37.108Z,4.80
2022-08-26T20:22:43.796Z,5.30
2022-08-26T20:27:47.181Z,5.10
2022-08-26T20:32:50.205Z,5.82
2022-08-26T20:37:55.768Z,5.68
2022-08-26T20:42:59.178Z,5.80
2022-08-26T20:53:05.848Z,4.30
2022-08-26T20:58:08.697Z,4.55
2022-08-26T21:03:11.532Z,4.03
2022-08-26T21:08:15.724Z,6.13
2022-08-26T21:13:18.749Z,4.20
2022-08-26T21:18:21.517Z,3.63
2022-08-26T21:23:29.194Z,4.25
2022-08-26T21:28:32.246Z,4.45
2022-08-26T21:33:35.786Z,4.70
2022-08-26T21:43:45.916Z,4.75
2022-08-26T21:48:53.376Z,3.92
2022-08-26T21:53:59.024Z,4.20
2022-08-26T21:59:09.542Z,4.18
2022-08-26T22:04:13.670Z,5.45
2022-08-26T22:09:19.125Z,4.63
2022-08-26T22:14:30.634Z,6.18
2022-08-26T22:19:45.622Z,5.65
2022-08-26T22:24:53.105Z,4.63
2022-08-26T22:30:01.731Z,5.47
2022-08-26T22:35:28.298Z,6.47
2022-08-26T22:40:34.508Z,5.45
2022-08-26T22:45:45.772Z,6.10
2022-08-26T22:50:51.457Z,6.35
2022-08-26T22:55:59.264Z,5.70
2022-08-26T23:01:10.389Z,6.85
2022-08-26T23:06:35.316Z,6.28
2022-08-26T23:16:50.531Z,6.93
2022-08-26T23:22:09.809Z,6.82
2022-08-26T23:27:15.261Z,5.65
2022-08-26T23:32:29.454Z,5.60
2022-08-26T23:37:35.946Z,5.13
2022-08-26T23:42:38.996Z,4.88
2022-08-26T23:47:43.140Z,4.47
2022-08-26T23:53:14.810Z,4.28
2022-08-26T23:58:18.208Z,4.35
